Time;durP1;ratioP1;P1;durP2;ratioP2;P2;SDS_P1;SDS_P2;PMS_P1;PMS_P2;Temp;Humidity;BMP_temperature;BMP_pressure;BME280_temperature;BME280_humidity;BME280_pressure;Samples;Min_cycle;Max_cycle;Signal;HPM_P1;HPM_P2
2022/06/06 00:00:44;;;;;;;6.70;2.00;;;14.30;99.90;;;;;;5059595;28;20189;-84
2022/06/06 00:03:10;;;;;;;2.27;1.80;;;14.30;99.90;;;;;;5061257;28;20170;-84
2022/06/06 00:05:36;;;;;;;2.63;1.80;;;14.30;99.90;;;;;;5061366;28;20166;-84
2022/06/06 00:08:03;;;;;;;2.37;1.70;;;14.30;99.90;;;;;;5060507;28;20197;-84
2022/06/06 00:10:30;;;;;;;3.47;1.70;;;14.30;99.90;;;;;;5061594;28;20174;-84
2022/06/06 00:12:55;;;;;;;1.93;1.50;;;14.30;99.90;;;;;;5060903;28;20180;-84
2022/06/06 00:15:22;;;;;;;5.80;1.90;;;14.20;99.90;;;;;;5061289;28;20264;-84
2022/06/06 00:17:48;;;;;;;3.63;2.10;;;14.10;99.90;;;;;;5061238;28;20198;-84
2022/06/06 00:20:14;;;;;;;3.10;1.70;;;14.10;99.90;;;;;;5061628;28;20280;-84
2022/06/06 00:22:40;;;;;;;2.03;1.60;;;14.00;99.90;;;;;;5062728;28;20208;-84
2022/06/06 00:25:06;;;;;;;2.20;1.87;;;13.90;99.90;;;;;;5067522;28;20190;-84
2022/06/06 00:27:32;;;;;;;2.43;1.90;;;13.90;99.90;;;;;;5058329;28;20258;-84
2022/06/06 00:29:58;;;;;;;3.47;2.10;;;13.90;99.90;;;;;;5058332;28;20295;-84
2022/06/06 00:35:07;;;;;;;4.23;2.40;;;13.80;99.90;;;;;;5060376;28;20163;-84
2022/06/06 00:37:35;;;;;;;4.00;1.77;;;13.80;99.90;;;;;;5059390;28;20197;-84
2022/06/06 00:40:03;;;;;;;2.90;2.10;;;13.80;99.90;;;;;;5059904;28;20661;-84
2022/06/06 00:42:32;;;;;;;3.03;2.20;;;13.70;99.90;;;;;;5060308;28;20231;-84
2022/06/06 00:45:17;;;;;;;3.83;2.53;;;13.60;99.90;;;;;;5059668;28;20169;-84
2022/06/06 00:47:46;;;;;;;2.90;2.00;;;13.60;99.90;;;;;;5074769;28;20701;-84
2022/06/06 00:50:18;;;;;;;5.40;2.73;;;13.50;99.90;;;;;;5057288;28;20256;-84
2022/06/06 00:52:47;;;;;;;3.53;2.37;;;13.50;99.90;;;;;;5057787;28;20166;-84
2022/06/06 00:55:18;;;;;;;4.97;2.50;;;13.50;99.90;;;;;;5057933;28;20224;-84
2022/06/06 00:57:53;;;;;;;5.17;2.63;;;13.40;99.90;;;;;;5059102;28;20235;-84
2022/06/06 01:00:20;;;;;;;3.37;1.90;;;13.40;99.90;;;;;;5058848;28;20192;-84
2022/06/06 01:02:53;;;;;;;3.17;2.33;;;13.30;99.90;;;;;;5059194;28;20173;-84
2022/06/06 01:05:22;;;;;;;4.40;2.67;;;13.30;99.90;;;;;;5058242;28;20314;-84
2022/06/06 01:07:48;;;;;;;3.70;2.13;;;13.30;99.90;;;;;;5058442;28;20307;-84
2022/06/06 01:10:15;;;;;;;3.77;2.50;;;13.20;99.90;;;;;;5057293;28;20240;-84
2022/06/06 01:12:44;;;;;;;3.10;2.40;;;13.20;99.90;;;;;;5058616;28;20177;-84
2022/06/06 01:15:12;;;;;;;3.30;2.60;;;13.20;99.90;;;;;;5057099;28;20177;-84
2022/06/06 01:18:20;;;;;;;2.77;2.27;;;13.10;99.90;;;;;;5058855;28;20193;-84
2022/06/06 01:21:42;;;;;;;2.70;2.40;;;13.10;99.90;;;;;;5058730;28;20228;-84
2022/06/06 01:24:27;;;;;;;9.13;2.50;;;13.00;99.90;;;;;;5017347;28;20192;-84
2022/06/06 01:27:15;;;;;;;3.37;2.10;;;13.00;99.90;;;;;;5001025;28;20174;-84
2022/06/06 01:29:45;;;;;;;3.67;2.10;;;13.00;99.90;;;;;;5049900;28;20237;-84
2022/06/06 01:32:15;;;;;;;2.13;1.93;;;13.00;99.90;;;;;;5057979;28;20688;-84
2022/06/06 01:34:42;;;;;;;2.80;2.20;;;13.00;99.90;;;;;;5057924;28;20340;-84
2022/06/06 01:37:32;;;;;;;3.10;2.80;;;13.00;99.90;;;;;;5057515;28;20200;-84
2022/06/06 01:40:00;;;;;;;3.43;2.47;;;13.00;99.90;;;;;;5058962;28;20168;-84
2022/06/06 01:42:54;;;;;;;2.90;2.67;;;13.00;99.90;;;;;;5058938;28;20525;-84
2022/06/06 01:45:29;;;;;;;4.10;2.60;;;13.00;99.90;;;;;;5074591;28;20165;-84
2022/06/06 01:48:23;;;;;;;2.57;2.37;;;13.00;99.90;;;;;;5058715;28;20199;-84
2022/06/06 01:50:50;;;;;;;2.73;2.23;;;13.00;99.90;;;;;;5059751;28;20187;-84
2022/06/06 01:53:25;;;;;;;2.83;2.43;;;12.90;99.90;;;;;;5060427;28;20188;-84
2022/06/06 01:55:53;;;;;;;4.37;2.53;;;12.90;99.90;;;;;;5057659;28;20188;-84
2022/06/06 01:58:22;;;;;;;6.80;2.43;;;12.90;99.90;;;;;;5057886;28;20288;-84
2022/06/06 02:00:48;;;;;;;3.00;2.43;;;12.90;99.90;;;;;;5058936;28;20189;-84
2022/06/06 02:03:15;;;;;;;4.80;2.47;;;12.80;99.90;;;;;;5059792;28;20174;-84
2022/06/06 02:05:41;;;;;;;3.13;2.50;;;12.70;99.90;;;;;;5059803;28;20165;-85
2022/06/06 02:08:08;;;;;;;3.07;2.50;;;12.70;99.90;;;;;;5060355;28;20193;-84
2022/06/06 02:10:35;;;;;;;4.77;2.50;;;12.70;99.90;;;;;;5060125;28;20176;-85
2022/06/06 02:13:01;;;;;;;4.20;2.50;;;12.70;99.90;;;;;;5058717;28;20170;-85
2022/06/06 02:15:28;;;;;;;3.93;2.57;;;12.70;99.90;;;;;;5068252;28;20310;-84
2022/06/06 02:17:55;;;;;;;3.13;2.77;;;12.70;99.90;;;;;;5057317;28;20571;-85
2022/06/06 02:20:23;;;;;;;4.80;2.57;;;12.70;99.90;;;;;;5056471;28;20263;-85
2022/06/06 02:22:49;;;;;;;5.07;2.60;;;12.70;99.90;;;;;;5057587;28;20219;-84
2022/06/06 02:25:15;;;;;;;3.10;2.80;;;12.70;99.90;;;;;;5057141;28;20207;-85
2022/06/06 02:27:42;;;;;;;4.50;2.67;;;12.70;99.90;;;;;;5057701;28;20197;-85
2022/06/06 02:30:12;;;;;;;4.07;2.70;;;12.70;99.90;;;;;;5058857;28;20178;-84
2022/06/06 02:32:38;;;;;;;4.40;3.10;;;12.70;99.90;;;;;;5058999;28;20188;-84
2022/06/06 02:35:04;;;;;;;3.63;2.90;;;12.70;99.90;;;;;;5058999;28;20652;-85
2022/06/06 02:37:29;;;;;;;2.57;2.27;;;12.70;99.90;;;;;;5057845;28;20562;-84
2022/06/06 02:39:55;;;;;;;2.60;2.40;;;12.70;99.90;;;;;;5056103;28;20201;-84
2022/06/06 02:42:21;;;;;;;3.33;2.90;;;12.70;99.90;;;;;;5056527;28;20232;-84
2022/06/06 02:44:48;;;;;;;2.77;2.50;;;12.60;99.90;;;;;;5056943;28;20598;-84
2022/06/06 02:47:14;;;;;;;4.10;2.47;;;12.60;99.90;;;;;;5057945;28;20185;-84
2022/06/06 02:49:39;;;;;;;2.93;2.57;;;12.60;99.90;;;;;;5056038;28;20177;-85
2022/06/06 02:52:05;;;;;;;3.13;2.53;;;12.60;99.90;;;;;;5060914;28;20178;-84
2022/06/06 02:54:31;;;;;;;4.13;2.87;;;12.60;99.90;;;;;;5060387;28;20185;-84
2022/06/06 02:56:59;;;;;;;3.20;2.60;;;12.60;99.90;;;;;;5060899;28;20182;-84
2022/06/06 02:59:26;;;;;;;4.03;2.40;;;12.60;99.90;;;;;;5060211;28;20274;-84
2022/06/06 03:01:52;;;;;;;4.23;2.60;;;12.70;99.90;;;;;;5060410;28;20177;-84
2022/06/06 03:04:19;;;;;;;4.90;2.50;;;12.70;99.90;;;;;;5060396;28;20181;-84
2022/06/06 03:07:33;;;;;;;3.20;2.80;;;12.70;99.90;;;;;;5061519;28;20170;-84
2022/06/06 03:10:08;;;;;;;3.73;2.50;;;12.70;99.90;;;;;;5050583;28;20594;-84
2022/06/06 03:12:42;;;;;;;3.07;2.70;;;12.70;99.90;;;;;;5061611;28;20175;-84
2022/06/06 03:20:46;;;;;;;4.77;2.83;;;12.60;99.90;;;;;;5061682;28;20160;-84
2022/06/06 03:21:53;;;;;;;3.77;2.57;;;12.60;99.90;;;;;;5062052;28;20289;-85
2022/06/06 03:24:31;;;;;;;3.07;2.67;;;12.60;99.90;;;;;;5062245;28;20173;-85
2022/06/06 03:27:12;;;;;;;7.10;2.60;;;12.60;99.90;;;;;;5062086;28;20244;-84
2022/06/06 03:29:53;;;;;;;3.23;2.77;;;12.50;99.90;;;;;;5077956;28;20186;-84
2022/06/06 03:32:56;;;;;;;4.90;2.80;;;12.50;99.90;;;;;;5062166;28;20185;-85
2022/06/06 03:35:44;;;;;;;5.80;3.30;;;12.50;99.90;;;;;;5078437;28;20553;-85
2022/06/06 03:38:26;;;;;;;4.33;2.90;;;12.50;99.90;;;;;;5064334;28;20667;-84
2022/06/06 03:41:10;;;;;;;3.10;2.80;;;12.50;99.90;;;;;;5060145;28;20173;-84
2022/06/06 03:43:39;;;;;;;4.50;3.23;;;12.50;99.90;;;;;;5077840;28;20176;-84
2022/06/06 03:46:26;;;;;;;5.30;3.57;;;12.50;99.90;;;;;;5077213;28;20173;-84
2022/06/06 03:49:15;;;;;;;4.50;3.40;;;12.50;99.90;;;;;;5077680;28;20201;-84
2022/06/06 03:52:35;;;;;;;6.73;2.80;;;12.50;99.90;;;;;;5060846;28;20253;-84
2022/06/06 03:55:32;;;;;;;3.40;3.10;;;12.50;99.90;;;;;;5019942;28;20189;-84
2022/06/06 03:58:00;;;;;;;3.10;2.80;;;12.50;99.90;;;;;;5077969;28;20219;-84
2022/06/06 04:00:26;;;;;;;3.70;3.20;;;12.50;99.90;;;;;;5062608;28;20244;-84
2022/06/06 04:02:55;;;;;;;4.33;2.80;;;12.60;99.90;;;;;;5062432;28;20203;-85
2022/06/06 04:05:22;;;;;;;4.07;2.80;;;12.50;99.90;;;;;;5060599;28;20264;-84
2022/06/06 04:07:48;;;;;;;5.37;2.60;;;12.60;99.90;;;;;;5060852;28;20193;-84
2022/06/06 04:10:15;;;;;;;4.03;3.00;;;12.60;99.90;;;;;;5060647;28;20679;-85
2022/06/06 04:13:00;;;;;;;6.03;4.30;;;12.60;99.90;;;;;;5067733;28;20185;-84
2022/06/06 04:15:48;;;;;;;5.30;3.43;;;12.60;99.90;;;;;;5060678;28;20253;-84
2022/06/06 04:18:27;;;;;;;3.50;3.00;;;12.70;99.90;;;;;;5074291;28;20296;-84
2022/06/06 04:21:01;;;;;;;5.23;2.80;;;12.70;99.90;;;;;;5075245;28;20181;-84
2022/06/06 04:23:54;;;;;;;4.67;2.27;;;12.80;99.90;;;;;;5060216;28;20177;-84
2022/06/06 04:26:36;;;;;;;2.73;2.20;;;12.90;99.90;;;;;;5059910;28;20246;-84
2022/06/06 04:29:26;;;;;;;2.50;2.20;;;12.90;99.90;;;;;;5059716;28;20197;-84
2022/06/06 04:32:00;;;;;;;3.23;2.37;;;13.10;99.90;;;;;;5059739;28;20177;-84
2022/06/06 04:34:45;;;;;;;2.73;1.87;;;13.10;99.90;;;;;;5058490;28;20172;-84
2022/06/06 04:37:34;;;;;;;2.40;2.20;;;13.20;99.90;;;;;;5075188;28;20197;-84
2022/06/06 04:40:11;;;;;;;2.40;2.20;;;13.30;99.90;;;;;;5058306;28;20198;-85
2022/06/06 04:42:42;;;;;;;3.93;2.50;;;13.30;99.90;;;;;;5059183;28;20158;-84
2022/06/06 04:45:30;;;;;;;9.40;2.30;;;13.40;99.90;;;;;;5073986;28;20182;-84
2022/06/06 04:47:58;;;;;;;2.87;2.10;;;13.50;99.90;;;;;;5073950;28;20247;-84
2022/06/06 04:50:24;;;;;;;2.33;1.87;;;13.40;99.90;;;;;;5057350;28;20185;-84
2022/06/06 04:53:01;;;;;;;3.67;2.40;;;13.50;99.90;;;;;;5057140;28;20185;-84
2022/06/06 04:55:29;;;;;;;3.83;2.33;;;13.50;99.90;;;;;;5058844;28;20164;-84
2022/06/06 04:57:58;;;;;;;4.50;2.20;;;13.60;99.90;;;;;;5056831;28;20208;-84
2022/06/06 05:00:27;;;;;;;4.37;2.07;;;13.60;99.90;;;;;;5058560;28;20279;-83
2022/06/06 05:02:52;;;;;;;2.40;1.87;;;13.70;99.90;;;;;;5058836;28;20170;-83
2022/06/06 05:05:19;;;;;;;4.27;2.30;;;13.80;99.90;;;;;;5056591;28;20182;-84
2022/06/06 05:07:51;;;;;;;4.83;2.67;;;13.80;99.90;;;;;;5058235;28;20573;-83
2022/06/06 05:10:41;;;;;;;4.43;1.83;;;13.90;99.90;;;;;;5057917;28;20244;-83
2022/06/06 05:13:36;;;;;;;4.33;2.00;;;14.00;99.90;;;;;;5057272;28;20174;-83
2022/06/06 05:16:07;;;;;;;2.17;1.97;;;14.00;99.90;;;;;;5057352;28;20170;-83
2022/06/06 05:18:38;;;;;;;1.70;1.60;;;14.00;99.90;;;;;;5058861;28;20228;-84
2022/06/06 05:21:04;;;;;;;2.63;2.00;;;14.10;99.90;;;;;;5058619;28;20623;-83
2022/06/06 05:23:42;;;;;;;2.20;2.00;;;14.10;99.90;;;;;;5058676;28;20257;-83
2022/06/06 05:26:39;;;;;;;5.90;2.07;;;14.20;99.90;;;;;;5074429;28;20170;-83
2022/06/06 05:29:25;;;;;;;2.93;2.00;;;14.20;99.90;;;;;;5073935;28;20205;-84
2022/06/06 05:32:09;;;;;;;3.43;1.77;;;14.30;99.90;;;;;;5058520;28;20161;-83
2022/06/06 05:34:43;;;;;;;1.50;1.40;;;14.30;99.90;;;;;;5058911;28;20200;-83
2022/06/06 05:37:46;;;;;;;3.53;1.77;;;14.40;99.90;;;;;;5057901;28;20196;-83
2022/06/06 05:40:29;;;;;;;2.00;1.70;;;14.40;99.90;;;;;;5054739;28;20596;-83
2022/06/06 05:43:20;;;;;;;2.77;1.90;;;14.50;99.90;;;;;;5059332;28;20202;-84
2022/06/06 05:46:04;;;;;;;3.53;1.70;;;14.60;99.90;;;;;;5059533;28;20520;-84
2022/06/06 05:48:33;;;;;;;2.97;1.80;;;14.60;99.90;;;;;;5059101;28;20193;-84
2022/06/06 05:51:27;;;;;;;1.87;1.70;;;14.70;99.90;;;;;;5074096;28;20177;-83
2022/06/06 05:54:19;;;;;;;2.50;1.70;;;14.80;99.90;;;;;;5074340;28;20621;-83
2022/06/06 05:57:00;;;;;;;1.77;1.67;;;14.90;99.90;;;;;;5054868;28;20235;-83
2022/06/06 05:59:44;;;;;;;2.03;1.67;;;15.00;99.90;;;;;;5059549;28;20205;-83
2022/06/06 06:02:32;;;;;;;3.23;1.70;;;15.10;99.90;;;;;;5074675;28;20178;-84
2022/06/06 06:05:07;;;;;;;2.37;1.90;;;15.20;99.90;;;;;;5074789;28;20174;-83
2022/06/06 06:07:45;;;;;;;2.63;1.80;;;15.30;99.90;;;;;;5059554;28;20189;-83
2022/06/06 06:10:17;;;;;;;3.33;2.10;;;15.40;99.90;;;;;;5074802;28;20173;-83
2022/06/06 06:12:55;;;;;;;2.90;1.70;;;15.50;99.90;;;;;;5058849;28;20256;-84
2022/06/06 06:15:37;;;;;;;3.30;1.90;;;15.60;99.90;;;;;;5078049;28;20177;-83
2022/06/06 06:18:22;;;;;;;2.80;1.80;;;15.70;99.90;;;;;;5058968;28;20288;-83
2022/06/06 06:20:56;;;;;;;3.37;1.90;;;15.80;99.90;;;;;;5058249;28;20181;-83
2022/06/06 06:23:26;;;;;;;2.67;1.60;;;15.90;99.90;;;;;;5058558;28;20631;-83
2022/06/06 06:25:53;;;;;;;3.23;1.93;;;16.00;99.90;;;;;;5060137;28;20200;-83
2022/06/06 06:28:19;;;;;;;2.20;1.83;;;16.20;99.90;;;;;;5061708;28;20212;-84
2022/06/06 06:31:05;;;;;;;1.97;1.80;;;16.20;99.90;;;;;;5061134;28;20551;-84
2022/06/06 06:33:48;;;;;;;3.10;1.73;;;16.30;99.90;;;;;;5062187;28;20165;-84
2022/06/06 06:36:46;;;;;;;1.80;1.53;;;16.40;99.90;;;;;;5078361;28;20181;-84
2022/06/06 06:39:20;;;;;;;2.13;1.63;;;16.50;99.90;;;;;;5043411;28;20762;-83
2022/06/06 06:42:10;;;;;;;2.90;1.80;;;16.60;99.90;;;;;;5076775;28;20532;-84
2022/06/06 06:45:01;;;;;;;3.43;1.80;;;16.70;99.90;;;;;;5062398;28;20154;-84
2022/06/06 06:47:33;;;;;;;1.67;1.57;;;16.80;99.90;;;;;;5062142;28;20190;-80
2022/06/06 06:50:16;;;;;;;5.10;1.80;;;16.90;99.90;;;;;;5060352;28;20165;-80
2022/06/06 06:53:20;;;;;;;1.63;1.53;;;17.00;99.90;;;;;;5075466;28;20253;-80
2022/06/06 06:56:16;;;;;;;1.90;1.70;;;17.00;99.90;;;;;;5076057;28;20173;-80
2022/06/06 06:59:25;;;;;;;1.83;1.53;;;17.20;99.90;;;;;;5077171;28;20292;-79
2022/06/06 07:08:35;;;;;;;3.67;2.03;;;17.70;99.90;;;;;;5063191;28;20259;-83
2022/06/06 07:11:30;;;;;;;2.90;1.63;;;17.80;99.90;;;;;;5078203;28;20640;-87
2022/06/06 07:14:10;;;;;;;2.00;1.80;;;17.90;99.90;;;;;;5040194;28;20186;-85
2022/06/06 07:16:38;;;;;;;1.63;1.53;;;18.10;99.90;;;;;;5076530;28;20261;-80
2022/06/06 07:19:22;;;;;;;4.57;2.10;;;18.10;99.90;;;;;;5059392;28;20222;-83
2022/06/06 07:21:49;;;;;;;2.40;1.83;;;18.10;99.90;;;;;;5059780;28;20246;-83
2022/06/06 07:24:21;;;;;;;1.70;1.30;;;18.10;99.90;;;;;;5059662;28;20181;-83
2022/06/06 07:26:48;;;;;;;3.63;2.00;;;18.20;99.90;;;;;;5059909;28;20181;-82
2022/06/06 07:29:19;;;;;;;3.30;2.30;;;18.30;99.90;;;;;;5060608;28;20199;-84
2022/06/06 07:31:57;;;;;;;3.20;1.97;;;18.30;99.90;;;;;;5060975;28;20181;-81
2022/06/06 07:34:41;;;;;;;3.30;2.50;;;18.30;99.90;;;;;;5061030;28;20186;-78
2022/06/06 07:37:24;;;;;;;3.17;2.60;;;18.30;99.90;;;;;;5075173;28;20168;-81
2022/06/06 07:40:09;;;;;;;2.40;2.10;;;18.30;99.90;;;;;;5060127;28;20683;-82
2022/06/06 07:42:48;;;;;;;5.97;2.80;;;18.20;99.90;;;;;;5077074;28;20176;-80
2022/06/06 07:45:29;;;;;;;2.03;1.83;;;18.20;99.90;;;;;;5060617;28;20213;-82
2022/06/06 07:48:02;;;;;;;2.67;1.90;;;18.10;99.90;;;;;;5078237;28;20195;-81
2022/06/06 07:50:48;;;;;;;2.30;1.90;;;18.10;99.90;;;;;;5062239;28;20179;-83
2022/06/06 07:53:24;;;;;;;4.23;2.50;;;18.10;99.90;;;;;;5076724;28;20633;-83
2022/06/06 07:56:02;;;;;;;10.33;2.57;;;18.00;99.90;;;;;;5060508;28;20163;-83
2022/06/06 07:58:33;;;;;;;2.10;1.90;;;17.90;99.90;;;;;;5075934;28;20233;-83
2022/06/06 08:01:08;;;;;;;2.43;2.00;;;17.90;99.90;;;;;;5060073;28;20166;-83
2022/06/06 08:03:50;;;;;;;2.23;2.03;;;18.00;99.90;;;;;;5076596;28;20178;-82
2022/06/06 08:06:55;;;;;;;5.50;2.53;;;18.10;99.90;;;;;;5059983;28;20171;-83
2022/06/06 08:09:35;;;;;;;3.93;2.17;;;18.30;99.90;;;;;;5064301;28;20273;-82
2022/06/06 08:12:11;;;;;;;3.67;2.00;;;18.40;99.90;;;;;;5059737;28;20232;-83
2022/06/06 08:15:04;;;;;;;2.83;2.03;;;18.70;99.90;;;;;;5076622;28;20569;-83
2022/06/06 08:17:50;;;;;;;2.50;1.90;;;18.80;99.90;;;;;;5059516;28;20254;-83
2022/06/06 08:20:16;;;;;;;8.07;2.93;;;18.80;99.90;;;;;;5040038;28;20226;-84
2022/06/06 08:22:44;;;;;;;3.43;2.10;;;18.70;99.90;;;;;;5061606;28;20180;-82
2022/06/06 08:25:14;;;;;;;5.83;2.63;;;18.60;99.90;;;;;;5060202;28;20181;-82
2022/06/06 08:27:47;;;;;;;3.10;2.17;;;18.60;99.90;;;;;;5058781;28;20202;-82
2022/06/06 08:30:14;;;;;;;2.63;2.17;;;18.50;99.90;;;;;;5060270;28;20161;-84
2022/06/06 08:32:39;;;;;;;3.83;2.43;;;18.50;99.90;;;;;;5060076;28;20310;-83
2022/06/06 08:35:06;;;;;;;4.30;2.43;;;18.50;99.90;;;;;;5060541;28;20207;-84
2022/06/06 08:37:32;;;;;;;4.30;2.30;;;18.50;99.90;;;;;;5060933;28;20221;-84
2022/06/06 08:40:27;;;;;;;3.80;2.60;;;18.80;99.90;;;;;;5075702;28;20203;-83
2022/06/06 08:43:00;;;;;;;3.20;2.43;;;19.00;99.90;;;;;;5060833;28;20194;-85
2022/06/06 08:45:44;;;;;;;3.90;2.13;;;19.30;99.90;;;;;;5060046;28;20232;-82
2022/06/06 08:48:53;;;;;;;2.20;2.00;;;19.80;99.90;;;;;;5073367;28;20216;-82
2022/06/06 08:51:34;;;;;;;3.50;2.37;;;19.90;99.90;;;;;;5074399;28;20533;-82
2022/06/06 08:54:30;;;;;;;3.77;1.97;;;19.90;99.90;;;;;;5059486;28;20169;-86
2022/06/06 08:57:14;;;;;;;3.57;2.07;;;20.00;99.90;;;;;;5074730;28;20169;-82
2022/06/06 09:00:21;;;;;;;2.47;2.10;;;20.20;99.90;;;;;;5059441;28;20218;-82
2022/06/06 09:02:54;;;;;;;2.43;1.93;;;20.20;99.90;;;;;;5038516;28;20269;-82
2022/06/06 09:05:38;;;;;;;2.30;2.10;;;20.20;99.90;;;;;;5074220;28;20179;-82
2022/06/06 09:08:21;;;;;;;5.03;2.13;;;20.40;99.90;;;;;;5073631;28;20733;-82
2022/06/06 09:10:53;;;;;;;4.43;2.40;;;20.40;99.90;;;;;;5074330;28;20181;-82
2022/06/06 09:13:44;;;;;;;4.97;2.27;;;20.50;99.90;;;;;;5058185;28;20635;-82
2022/06/06 09:16:41;;;;;;;3.27;2.27;;;20.70;99.90;;;;;;5052503;28;20260;-82
2022/06/06 09:19:19;;;;;;;6.67;2.40;;;20.90;99.90;;;;;;5074476;28;20205;-82
2022/06/06 09:22:39;;;;;;;6.43;2.20;;;20.90;99.90;;;;;;5073788;28;20646;-82
2022/06/06 09:25:37;;;;;;;4.87;2.30;;;20.60;99.90;;;;;;5017155;28;20185;-82
2022/06/06 09:28:24;;;;;;;4.47;2.60;;;20.80;99.90;;;;;;5058583;28;20192;-82
2022/06/06 09:31:14;;;;;;;3.40;1.93;;;21.40;99.90;;;;;;5059003;28;20218;-82
2022/06/06 09:34:07;;;;;;;3.40;1.60;;;21.70;99.90;;;;;;5059319;28;20154;-82
2022/06/06 09:36:44;;;;;;;3.60;1.87;;;22.10;99.90;;;;;;5059322;28;20158;-82
2022/06/06 09:39:31;;;;;;;2.13;1.80;;;22.10;99.90;;;;;;5077369;28;20579;-83
2022/06/06 09:42:35;;;;;;;2.93;1.67;;;22.10;99.90;;;;;;5077378;28;20170;-81
2022/06/06 09:45:33;;;;;;;4.57;4.17;;;22.10;99.90;;;;;;5079306;28;20171;-83
2022/06/06 09:48:20;;;;;;;15.53;13.90;;;22.20;99.90;;;;;;5063028;28;20197;-84
2022/06/06 09:51:13;;;;;;;30.40;24.37;;;22.20;99.90;;;;;;5079823;28;20524;-83
2022/06/06 10:00:42;;;;;;;11.93;10.07;;;21.50;99.90;;;;;;5069559;28;20230;-87
2022/06/06 10:03:38;;;;;;;14.10;10.87;;;21.20;99.90;;;;;;5023816;28;20200;-82
2022/06/06 10:06:28;;;;;;;16.50;11.13;;;21.00;99.90;;;;;;5061532;28;20173;-82
2022/06/06 10:09:33;;;;;;;3.20;2.90;;;20.80;99.90;;;;;;5076640;28;20194;-83
2022/06/06 10:12:10;;;;;;;2.40;2.20;;;20.80;99.90;;;;;;5039611;28;20276;-84
2022/06/06 10:14:58;;;;;;;4.23;1.87;;;21.30;99.90;;;;;;5059911;28;20179;-83
2022/06/06 10:18:00;;;;;;;3.00;2.13;;;21.60;99.90;;;;;;5060745;28;20195;-83
2022/06/06 10:21:04;;;;;;;3.30;2.50;;;21.50;99.90;;;;;;5070977;28;20201;-86
2022/06/06 10:23:48;;;;;;;108.27;94.70;;;21.70;99.90;;;;;;5075621;28;20165;-82
2022/06/06 10:26:20;;;;;;;7.53;5.87;;;22.50;99.90;;;;;;5073789;28;20196;-84
2022/06/06 10:28:52;;;;;;;3.80;1.83;;;22.90;99.90;;;;;;5072484;28;20296;-87
2022/06/06 10:31:38;;;;;;;2.10;1.60;;;23.20;99.90;;;;;;5072698;28;20237;-81
2022/06/06 10:34:22;;;;;;;3.13;2.40;;;23.10;99.90;;;;;;5061280;28;20204;-84
2022/06/06 10:37:06;;;;;;;3.60;2.37;;;22.70;99.90;;;;;;5076467;28;20179;-86
2022/06/06 10:39:45;;;;;;;10.53;7.80;;;22.70;99.90;;;;;;5073861;28;20208;-88
2022/06/06 10:42:48;;;;;;;4.17;2.37;;;22.80;99.90;;;;;;5072803;28;20176;-88
2022/06/06 10:45:52;;;;;;;4.37;2.20;;;22.80;99.90;;;;;;5072587;28;20197;-89
2022/06/06 10:48:46;;;;;;;1.57;1.40;;;22.70;99.90;;;;;;5050344;28;20227;-89
2022/06/06 10:51:37;;;;;;;5.60;1.97;;;22.70;99.90;;;;;;5072907;28;20175;-87
2022/06/06 10:54:40;;;;;;;1.70;1.60;;;22.50;99.90;;;;;;5071160;28;20233;-89
2022/06/06 10:57:23;;;;;;;3.10;1.90;;;22.30;99.90;;;;;;5056578;28;20570;-89
2022/06/06 11:00:28;;;;;;;2.50;1.77;;;22.10;99.90;;;;;;5074142;28;20213;-86
2022/06/06 11:03:19;;;;;;;2.80;1.90;;;22.00;99.90;;;;;;5074453;28;20178;-85
2022/06/06 11:05:51;;;;;;;2.40;1.50;;;21.80;99.90;;;;;;5061318;28;20167;-86
2022/06/06 11:08:30;;;;;;;2.67;1.70;;;22.20;99.90;;;;;;5057969;28;20669;-88
2022/06/06 11:11:26;;;;;;;2.27;1.57;;;22.40;99.90;;;;;;5057543;28;20171;-90
2022/06/06 11:14:18;;;;;;;3.33;1.53;;;22.80;99.90;;;;;;5078044;28;20663;-90
2022/06/06 11:17:21;;;;;;;1.57;1.47;;;23.20;99.90;;;;;;5059263;28;20162;-92
2022/06/06 11:20:04;;;;;;;2.10;1.67;;;23.80;99.90;;;;;;5076303;28;20191;-90
2022/06/06 11:22:41;;;;;;;3.33;2.40;;;24.40;99.90;;;;;;5074876;28;20566;-89
2022/06/06 11:25:19;;;;;;;4.13;2.10;;;24.40;99.90;;;;;;5059746;28;20624;-88
2022/06/06 11:27:58;;;;;;;6.17;2.13;;;24.10;99.90;;;;;;5057820;28;20255;-87
2022/06/06 11:31:01;;;;;;;5.33;2.03;;;24.10;99.90;;;;;;5075890;28;20184;-87
2022/06/06 11:34:16;;;;;;;3.47;1.73;;;24.40;99.90;;;;;;5075430;28;20206;-88
2022/06/06 11:37:35;;;;;;;2.70;1.70;;;24.50;99.90;;;;;;5064985;28;20166;-87
2022/06/06 11:40:21;;;;;;;2.67;1.70;;;24.50;99.90;;;;;;5026330;28;20280;-88
2022/06/06 11:42:46;;;;;;;3.50;1.97;;;24.80;99.90;;;;;;5075694;28;20183;-88
2022/06/06 11:45:41;;;;;;;1.87;1.50;;;24.80;99.90;;;;;;5075219;28;20196;-88
2022/06/06 11:48:21;;;;;;;1.77;1.57;;;25.60;99.90;;;;;;5074613;28;20196;-87
2022/06/06 11:50:47;;;;;;;1.63;1.53;;;;;;;;;;5074597;28;20182;-87
2022/06/06 11:53:56;;;;;;;2.67;1.70;;;25.90;99.90;;;;;;5059846;28;20177;-83
2022/06/06 11:56:39;;;;;;;4.37;1.73;;;25.90;99.90;;;;;;5028873;28;20199;-86
2022/06/06 11:59:21;;;;;;;2.30;1.77;;;26.10;99.90;;;;;;5074268;28;20220;-84
2022/06/06 12:02:24;;;;;;;3.70;1.40;;;25.50;99.90;;;;;;5074603;28;20182;-87
2022/06/06 12:04:56;;;;;;;2.47;1.60;;;24.70;99.90;;;;;;5074376;28;20174;-86
2022/06/06 12:07:50;;;;;;;4.60;2.13;;;24.00;99.90;;;;;;5074539;28;20222;-86
2022/06/06 12:10:24;;;;;;;4.33;1.77;;;23.40;99.90;;;;;;5058802;28;20177;-86
2022/06/06 12:13:13;;;;;;;2.53;1.87;;;23.10;99.90;;;;;;5057152;28;20602;-86
2022/06/06 12:16:05;;;;;;;2.43;1.50;;;22.90;99.90;;;;;;5059552;28;20176;-85
2022/06/06 12:18:43;;;;;;;3.23;1.57;;;23.10;99.90;;;;;;5077119;28;20214;-84
2022/06/06 12:21:35;;;;;;;1.50;1.40;;;22.80;99.90;;;;;;5075201;28;20178;-87
2022/06/06 12:24:30;;;;;;;3.30;1.60;;;22.50;99.90;;;;;;5059087;28;20198;-85
2022/06/06 12:27:22;;;;;;;1.73;1.60;;;22.20;99.90;;;;;;5057236;28;20218;-88
2022/06/06 12:30:15;;;;;;;1.73;1.40;;;22.80;99.90;;;;;;5074636;28;20277;-90
2022/06/06 12:33:03;;;;;;;3.33;1.60;;;24.40;99.90;;;;;;5063080;28;20170;-87
2022/06/06 12:35:48;;;;;;;5.87;1.80;;;25.50;99.90;;;;;;5057792;28;20205;-85
2022/06/06 12:38:19;;;;;;;3.43;1.70;;;25.20;99.90;;;;;;5072763;28;20227;-86
2022/06/06 12:41:16;;;;;;;3.30;1.60;;;24.60;99.90;;;;;;5073478;28;20310;-85
2022/06/06 12:43:50;;;;;;;2.23;1.60;;;24.40;99.90;;;;;;5057598;28;20159;-85
2022/06/06 12:46:43;;;;;;;2.37;1.90;;;24.80;99.90;;;;;;5057624;28;20256;-84
2022/06/06 12:49:21;;;;;;;2.53;1.50;;;25.30;99.90;;;;;;5055592;28;20204;-85
2022/06/06 12:52:09;;;;;;;2.50;1.60;;;25.60;99.90;;;;;;5057812;28;20212;-85
2022/06/06 12:58:08;;;;;;;2.40;1.60;;;26.70;99.90;;;;;;5058291;28;20208;-85
2022/06/06 13:04:08;;;;;;;1.93;1.50;;;27.20;99.90;;;;;;5057709;28;20584;-85
2022/06/06 13:06:56;;;;;;;2.00;1.40;;;26.80;99.90;;;;;;5072836;28;20201;-86
2022/06/06 13:09:30;;;;;;;3.13;1.33;;;27.00;99.90;;;;;;5073003;28;20240;-86
2022/06/06 13:12:45;;;;;;;2.03;1.40;;;26.80;99.90;;;;;;5076708;28;20186;-85
2022/06/06 13:15:26;;;;;;;3.20;1.50;;;26.70;99.90;;;;;;5017146;28;20188;-86
2022/06/06 13:18:16;;;;;;;4.60;1.80;;;26.40;99.90;;;;;;5016587;28;20788;-83
2022/06/06 13:21:00;;;;;;;2.37;1.23;;;26.40;99.90;;;;;;5047041;28;20236;-88
2022/06/06 13:23:36;;;;;;;1.53;1.30;;;26.80;99.90;;;;;;5076074;28;20176;-85
2022/06/06 13:26:25;;;;;;;1.17;1.03;;;27.10;99.90;;;;;;5059160;28;20168;-84
2022/06/06 13:28:55;;;;;;;2.50;1.57;;;26.60;99.90;;;;;;5058092;28;20244;-84
2022/06/06 13:31:54;;;;;;;1.50;1.40;;;26.50;99.90;;;;;;5060360;28;20180;-83
2022/06/06 13:34:37;;;;;;;1.67;1.40;;;26.50;99.90;;;;;;5055456;28;20223;-83
2022/06/06 13:37:18;;;;;;;4.13;1.60;;;26.10;99.90;;;;;;5060228;28;20193;-83
2022/06/06 13:40:07;;;;;;;2.23;1.63;;;25.70;99.90;;;;;;5061723;28;20217;-84
2022/06/06 13:42:55;;;;;;;3.30;1.67;;;25.20;99.90;;;;;;5060419;28;20526;-83
2022/06/06 13:45:33;;;;;;;2.27;1.20;;;24.90;99.90;;;;;;5078690;28;20175;-82
2022/06/06 13:48:29;;;;;;;2.43;1.43;;;24.40;99.90;;;;;;5078044;28;20261;-83
2022/06/06 13:51:25;;;;;;;2.70;1.50;;;24.10;99.90;;;;;;5061816;28;20190;-84
2022/06/06 13:54:06;;;;;;;2.47;1.57;;;23.60;99.90;;;;;;5061250;28;20202;-83
2022/06/06 13:57:00;;;;;;;2.50;1.60;;;23.30;99.90;;;;;;5062064;28;20175;-82
2022/06/06 13:59:38;;;;;;;2.57;1.33;;;23.40;99.90;;;;;;5065941;28;20203;-86
2022/06/06 14:02:22;;;;;;;1.60;1.50;;;23.40;99.90;;;;;;5088345;28;20169;-83
2022/06/06 14:05:07;;;;;;;3.30;1.90;;;23.40;99.90;;;;;;5079411;28;20162;-83
2022/06/06 14:07:45;;;;;;;1.97;1.60;;;23.60;99.90;;;;;;5079140;28;20212;-83
2022/06/06 14:10:16;;;;;;;2.07;1.80;;;23.60;99.90;;;;;;5077248;28;20225;-83
2022/06/06 14:13:15;;;;;;;4.30;1.70;;;24.00;99.90;;;;;;5061531;28;20168;-84
2022/06/06 14:15:44;;;;;;;1.90;1.60;;;24.40;99.90;;;;;;5061491;28;20179;-84
2022/06/06 14:18:17;;;;;;;1.83;1.70;;;25.10;99.90;;;;;;5062743;28;20201;-84
2022/06/06 14:20:48;;;;;;;2.30;1.50;;;25.20;99.90;;;;;;5063093;28;20177;-84